Oilton, Texas
Current Conditions -  °F | °C
As of 9:15 AM on Monday 24 Nov 2014 (Local Time) from KHBV Reporting Station
Clear Clear  
Wind Chill: 57°   Ceiling: Unl
Heat Index: 57°   Visibility: 10mi
Dew Point: 38°   Wind: 16mph
Humidity: 49%   Direction: 360°N
Pressure: 30.11"   Gusts: 21mph
Location:  27.47°N, 98.97°W
Report Text: KHBV 241515Z AUTO 36014G18KT 10SM CLR 14/03 A3011 RMK AO2 T01370032
Loading
Personal Weather Stations






























Interactive Weather Map New forecast layout! Learn more

10-Day Weather Forecast

Advertisements
Track Severe Weather on mobile